Welcome to Northern Hawkes Bay. New Zealand.
PWS Header
      nz Flag



Hit Counter


W3C Valid W3C Valid logo


    Wairoa

Select any of the Stations below to visit their websites.










Historic Data from Weather Underground
Select the location of interest below. Wairoa is the default. Please have patience, this Data is slow to load in.
Northern Hawkes Bay Historical Data
Daily Summary for May 27, 2017 Units:  Metric    English   Both
« Previous Day
Next Day »
Daily Weekly Monthly Yearly Custom
  High: Low: Average:
Temperature: 16.0 °C 12.0 °C 13.2 °C
Dew Point: 13.8 °C 11.6 °C 12.6 °C
Humidity: 99% 86% 96%
Wind Speed: 29.4km/h 0.0km/h 8.8km/h
Wind Gust: 37.8km/h - -
Wind- - WSW
Pressure: 1015.5 hPa 1011.4 hPa -
Precipitation: 22.6 mm    
Historical Graphs
 
 
Tabular Data for May 27, 2017
Time Temperature Dew Point Pressure Wind Wind Speed Wind Gust Humidity Rainfall Rate (Hourly) solar
00:04 16.0 °C 13.7 °C 1011.4 hPa North 3.5 km/h 5.0 km/h 86% 0.0 mm 49 W/m2
00:09 16.0 °C 13.7 °C 1011.4 hPa NNW 3.5 km/h 6.1 km/h 86% 0.0 mm 40 W/m2
00:14 15.6 °C 13.6 °C 1011.4 hPa NNW 2.6 km/h 7.2 km/h 88% 0.0 mm 36 W/m2
00:19 15.5 °C 13.7 °C 1011.4 hPa NW 2.6 km/h 7.2 km/h 89% 0.0 mm 31 W/m2
00:24 15.4 °C 13.8 °C 1011.4 hPa Calm   5.0 km/h 90% 0.0 mm 25 W/m2
00:29 14.7 °C 13.1 °C 1011.4 hPa Calm   5.0 km/h 90% 0.0 mm 17 W/m2
00:34 15.1 °C 13.5 °C 1011.4 hPa Calm   2.6 km/h 90% 0.0 mm 12 W/m2
00:39 15.0 °C 13.4 °C 1011.4 hPa Calm   2.6 km/h 90% 0.0 mm 10 W/m2
00:44 14.7 °C 13.3 °C 1011.4 hPa Calm   2.6 km/h 91% 0.0 mm 7 W/m2
00:49 14.0 °C 12.7 °C 1011.4 hPa SW 1.1 km/h 3.5 km/h 92% 0.0 mm 4 W/m2
00:54 14.4 °C 13.1 °C 1011.7 hPa Calm   3.5 km/h 92% 0.0 mm 2 W/m2
00:59 14.3 °C 13.2 °C 1011.4 hPa Calm   2.6 km/h 93% 0.0 mm 1 W/m2
01:04 14.0 °C 12.9 °C 1011.7 hPa Calm   2.6 km/h 93% 0.0 mm 0 W/m2
01:09 13.9 °C 12.9 °C 1011.7 hPa Calm   1.1 km/h 94% 0.0 mm 0 W/m2
01:15 13.7 °C 12.8 °C 1011.7 hPa Calm   1.1 km/h 94% 0.0 mm 0 W/m2
01:20 13.6 °C 12.7 °C 1011.7 hPa North 1.1 km/h 3.5 km/h 94% 0.0 mm 0 W/m2
01:25 13.5 °C 12.7 °C 1011.7 hPa Calm   3.5 km/h 95% 0.0 mm 0 W/m2
01:30 13.5 °C 12.7 °C 1011.7 hPa Calm   3.5 km/h 95% 0.0 mm 0 W/m2
01:35 13.5 °C 12.7 °C 1011.7 hPa Calm   1.1 km/h 95% 0.0 mm 0 W/m2
01:40 13.4 °C 12.6 °C 1011.7 hPa Calm     95% 0.0 mm 0 W/m2
01:45 13.1 °C 12.3 °C 1011.7 hPa Calm     95% 0.0 mm 0 W/m2
01:50 13.4 °C 12.8 °C 1011.7 hPa Calm     96% 0.0 mm 0 W/m2
01:55 13.3 °C 12.7 °C 1011.7 hPa Calm     96% 0.0 mm 0 W/m2
02:00 13.2 °C 12.6 °C 1012.1 hPa Calm     96% 0.0 mm 0 W/m2
02:05 13.3 °C 12.7 °C 1012.1 hPa Calm   3.5 km/h 96% 0.0 mm 0 W/m2
02:25 13.2 °C 12.6 °C 1012.1 hPa Calm     96% 0.0 mm 0 W/m2
02:30 13.1 °C 12.5 °C 1012.1 hPa Calm   1.1 km/h 96% 0.0 mm 0 W/m2
02:35 13.0 °C 12.6 °C 1012.4 hPa Calm   2.6 km/h 97% 0.0 mm 0 W/m2
02:40 13.0 °C 12.6 °C 1012.4 hPa Calm   3.5 km/h 97% 0.0 mm 0 W/m2
02:45 12.9 °C 12.4 °C 1012.4 hPa Calm   3.5 km/h 97% 0.0 mm 0 W/m2
02:50 13.1 °C 12.7 °C 1012.4 hPa Calm   2.6 km/h 97% 0.0 mm 0 W/m2
02:55 13.1 °C 12.7 °C 1012.1 hPa Calm   2.6 km/h 97% 0.0 mm 0 W/m2
03:00 13.1 °C 12.7 °C 1012.1 hPa Calm   1.1 km/h 97% 0.0 mm 0 W/m2
03:05 13.0 °C 12.6 °C 1012.4 hPa Calm     97% 0.0 mm 0 W/m2
03:10 13.2 °C 12.7 °C 1012.1 hPa NNW 2.6 km/h 3.5 km/h 97% 0.0 mm 0 W/m2
03:15 13.1 °C 12.8 °C 1012.1 hPa North 2.6 km/h 3.5 km/h 98% 0.0 mm 0 W/m2
03:20 13.1 °C 12.8 °C 1012.4 hPa Calm   3.5 km/h 98% 0.0 mm 0 W/m2
03:25 12.9 °C 12.4 °C 1012.4 hPa Calm   3.5 km/h 97% 0.0 mm 0 W/m2
03:30 12.9 °C 12.4 °C 1012.4 hPa Calm   2.6 km/h 97% 0.0 mm 0 W/m2
03:35 12.8 °C 12.3 °C 1012.4 hPa North 1.1 km/h 2.6 km/h 97% 0.0 mm 0 W/m2
03:40 12.8 °C 12.3 °C 1012.4 hPa Calm   2.6 km/h 97% 0.0 mm 0 W/m2
03:45 12.7 °C 12.2 °C 1012.4 hPa Calm   2.6 km/h 97% 0.0 mm 0 W/m2
03:50 12.6 °C 12.2 °C 1012.4 hPa Calm   2.6 km/h 97% 0.0 mm 0 W/m2
03:55 12.6 °C 12.2 °C 1012.8 hPa Calm   1.1 km/h 97% 0.0 mm 0 W/m2
04:00 12.5 °C 12.1 °C 1012.8 hPa Calm     97% 0.0 mm 0 W/m2
04:05 12.6 °C 12.2 °C 1012.8 hPa Calm   2.6 km/h 97% 0.0 mm 0 W/m2
04:10 12.6 °C 12.2 °C 1012.8 hPa Calm   2.6 km/h 97% 0.0 mm 0 W/m2
04:15 12.6 °C 12.2 °C 1012.8 hPa Calm   2.6 km/h 97% 0.0 mm 0 W/m2
04:20 12.5 °C 12.1 °C 1012.4 hPa Calm     97% 0.0 mm 0 W/m2
04:25 12.5 °C 12.1 °C 1012.8 hPa Calm     97% 0.0 mm 0 W/m2
04:30 12.4 °C 11.9 °C 1012.8 hPa Calm     97% 0.0 mm 0 W/m2
04:35 12.4 °C 11.9 °C 1012.8 hPa Calm     97% 0.0 mm 0 W/m2
04:40 12.5 °C 12.1 °C 1012.8 hPa Calm   6.1 km/h 97% 0.0 mm 0 W/m2
04:45 12.5 °C 12.1 °C 1012.8 hPa Calm   6.1 km/h 97% 0.0 mm 0 W/m2
04:47 12.5 °C 12.1 °C 1012.8 hPa NNE 2.6 km/h 6.1 km/h 97% 0.0 mm 0 W/m2
04:52 12.6 °C 12.2 °C 1012.8 hPa Calm   3.5 km/h 97% 0.0 mm 0 W/m2
04:57 12.5 °C 12.1 °C 1012.8 hPa Calm   3.5 km/h 97% 0.0 mm 0 W/m2
05:02 12.5 °C 12.1 °C 1012.8 hPa NNW 2.6 km/h 3.5 km/h 97% 0.0 mm 0 W/m2
05:07 12.3 °C 11.8 °C 1013.1 hPa NNW 2.6 km/h 3.5 km/h 97% 0.0 mm 0 W/m2
05:12 12.2 °C 11.7 °C 1013.1 hPa NW 2.6 km/h 3.5 km/h 97% 0.0 mm 0 W/m2
05:17 12.1 °C 11.7 °C 1013.1 hPa Calm   3.5 km/h 97% 0.0 mm 0 W/m2
05:22 12.1 °C 11.7 °C 1013.1 hPa Calm   3.5 km/h 97% 0.0 mm 0 W/m2
05:27 12.1 °C 11.7 °C 1013.1 hPa Calm   2.6 km/h 97% 0.0 mm 0 W/m2
05:32 12.1 °C 11.7 °C 1013.1 hPa Calm   2.6 km/h 97% 0.0 mm 0 W/m2
05:37 12.1 °C 11.7 °C 1013.4 hPa Calm   2.6 km/h 97% 0.0 mm 0 W/m2
05:42 12.1 °C 11.7 °C 1013.1 hPa Calm     97% 0.0 mm 0 W/m2
05:47 12.1 °C 11.7 °C 1013.1 hPa Calm     97% 0.0 mm 0 W/m2
05:52 12.0 °C 11.6 °C 1013.4 hPa North 1.1 km/h 2.6 km/h 97% 0.0 mm 0 W/m2
05:57 12.0 °C 11.6 °C 1013.4 hPa Calm   3.5 km/h 97% 0.0 mm 0 W/m2
06:02 12.1 °C 11.7 °C 1013.4 hPa Calm   3.5 km/h 97% 0.0 mm 0 W/m2
06:07 12.1 °C 11.7 °C 1013.4 hPa Calm     97% 0.0 mm 0 W/m2
06:12 12.1 °C 11.7 °C 1013.4 hPa Calm   2.6 km/h 97% 0.0 mm 0 W/m2
06:17 12.1 °C 11.7 °C 1013.4 hPa Calm   2.6 km/h 97% 0.0 mm 0 W/m2
06:22 12.2 °C 11.7 °C 1013.4 hPa ESE 1.1 km/h 7.2 km/h 97% 0.0 mm 0 W/m2
06:27 12.6 °C 12.2 °C 1013.4 hPa WSW 3.5 km/h 8.7 km/h 97% 0.0 mm 0 W/m2
06:33 13.0 °C 12.8 °C 1013.4 hPa WSW 6.1 km/h 9.7 km/h 99% 0.0 mm 0 W/m2
06:38 13.2 °C 13.1 °C 1013.4 hPa WSW 6.1 km/h 9.7 km/h 99% 0.0 mm 0 W/m2
06:43 13.4 °C 13.3 °C 1013.4 hPa WSW 3.5 km/h 8.7 km/h 99% 0.0 mm 0 W/m2
06:48 13.5 °C 13.3 °C 1013.4 hPa SW 5.0 km/h 13.4 km/h 99% 0.0 mm 0 W/m2
06:53 13.6 °C 13.4 °C 1013.4 hPa SW 9.7 km/h 13.4 km/h 99% 0.0 mm 0 W/m2
06:58 13.6 °C 13.4 °C 1013.4 hPa SW 6.1 km/h 12.2 km/h 99% 0.0 mm 0 W/m2
07:03 13.6 °C 13.4 °C 1013.4 hPa SW 7.2 km/h 12.2 km/h 99% 0.0 mm 0 W/m2
07:08 13.7 °C 13.6 °C 1013.4 hPa SW 5.0 km/h 12.2 km/h 99% 0.0 mm 0 W/m2
07:13 13.7 °C 13.6 °C 1013.4 hPa SW 5.0 km/h 12.2 km/h 99% 0.0 mm 0 W/m2
07:18 13.7 °C 13.6 °C 1013.4 hPa SW 6.1 km/h 8.7 km/h 99% 0.0 mm 0 W/m2
07:23 13.7 °C 13.6 °C 1013.4 hPa SW 3.5 km/h 8.7 km/h 99% 0.0 mm 0 W/m2
07:28 13.7 °C 13.6 °C 1013.4 hPa SW 5.0 km/h 9.7 km/h 99% 0.0 mm 0 W/m2
07:34 13.7 °C 13.6 °C 1013.8 hPa SW 3.5 km/h 9.7 km/h 99% 0.0 mm 0 W/m2
07:39 13.7 °C 13.6 °C 1013.4 hPa WSW 6.1 km/h 9.7 km/h 99% 0.0 mm 0 W/m2
07:44 13.8 °C 13.7 °C 1013.8 hPa WSW 8.7 km/h 11.1 km/h 99% 0.0 mm 0 W/m2
07:49 13.9 °C 13.8 °C 1013.8 hPa WSW 7.2 km/h 18.3 km/h 99% 0.0 mm 0 W/m2
07:54 13.9 °C 13.8 °C 1013.8 hPa SW 11.1 km/h 18.3 km/h 99% 0.0 mm 0 W/m2
07:59 14.0 °C 13.7 °C 1013.8 hPa SW 11.1 km/h 20.9 km/h 98% 0.0 mm 0 W/m2
08:04 14.2 °C 13.7 °C 1013.8 hPa SW 11.1 km/h 20.9 km/h 97% 0.0 mm 0 W/m2
08:09 14.2 °C 13.7 °C 1013.8 hPa SW 15.8 km/h 28.0 km/h 97% 0.0 mm 0 W/m2
08:14 14.2 °C 13.7 °C 1013.8 hPa SW 14.8 km/h 28.0 km/h 97% 0.0 mm 0 W/m2
08:30 14.3 °C 13.8 °C 1014.1 hPa SW 14.8 km/h 28.0 km/h 97% 0.0 mm 0 W/m2
08:35 14.3 °C 13.8 °C 1013.8 hPa SW 21.9 km/h 28.0 km/h 97% 0.0 mm 0 W/m2
08:40 14.3 °C 13.8 °C 1013.8 hPa SW 19.5 km/h 25.6 km/h 97% 0.0 mm 0 W/m2
08:45 14.2 °C 13.7 °C 1013.8 hPa SW 14.8 km/h 28.0 km/h 97% 0.0 mm 0 W/m2
08:50 14.2 °C 13.7 °C 1013.8 hPa SW 14.8 km/h 28.0 km/h 97% 0.0 mm 0 W/m2
08:55 14.1 °C 13.6 °C 1013.8 hPa SW 13.4 km/h 28.0 km/h 97% 0.0 mm 0 W/m2
09:00 14.1 °C 13.6 °C 1014.1 hPa SW 19.5 km/h 31.7 km/h 97% 0.0 mm 0 W/m2
09:05 14.0 °C 13.4 °C 1014.1 hPa SW 14.8 km/h 31.7 km/h 96% 0.0 mm 0 W/m2
09:10 14.0 °C 13.4 °C 1013.8 hPa SSW 13.4 km/h 28.0 km/h 96% 0.0 mm 0 W/m2
09:15 13.9 °C 13.4 °C 1013.8 hPa SSW 17.2 km/h 28.0 km/h 97% 0.0 mm 0 W/m2
09:20 13.9 °C 13.4 °C 1013.8 hPa SW 19.5 km/h 30.6 km/h 97% 0.0 mm 0 W/m2
09:25 13.9 °C 13.4 °C 1013.8 hPa SW 19.5 km/h 33.1 km/h 97% 0.0 mm 0 W/m2
09:30 14.0 °C 13.2 °C 1014.1 hPa SW 21.9 km/h 33.1 km/h 95% 0.0 mm 0 W/m2
09:35 14.0 °C 13.2 °C 1014.1 hPa SW 15.8 km/h 33.1 km/h 95% 0.0 mm 0 W/m2
09:40 13.9 °C 13.3 °C 1014.1 hPa SW 18.3 km/h 33.1 km/h 96% 0.0 mm 0 W/m2
09:45 13.8 °C 13.2 °C 1014.1 hPa SW 17.2 km/h 28.0 km/h 96% 0.0 mm 0 W/m2
09:50 13.8 °C 13.2 °C 1014.1 hPa SW 14.8 km/h 28.0 km/h 96% 0.0 mm 0 W/m2
09:55 13.7 °C 13.2 °C 1014.1 hPa SW 13.4 km/h 28.0 km/h 97% 0.0 mm 0 W/m2
10:00 13.7 °C 13.2 °C 1014.1 hPa SW 11.1 km/h 23.3 km/h 97% 0.0 mm 0 W/m2
10:05 13.6 °C 13.1 °C 1014.1 hPa SW 14.8 km/h 24.5 km/h 97% 0.0 mm 0 W/m2
10:10 13.5 °C 13.1 °C 1014.1 hPa West 12.2 km/h 24.5 km/h 97% 0.0 mm 0 W/m2
10:15 13.5 °C 13.1 °C 1014.1 hPa West 12.2 km/h 25.6 km/h 97% 0.0 mm 0 W/m2
10:20 13.5 °C 13.1 °C 1014.1 hPa WSW 11.1 km/h 25.6 km/h 97% 0.0 mm 0 W/m2
10:25 13.5 °C 13.1 °C 1014.1 hPa WSW 14.8 km/h 23.3 km/h 97% 0.0 mm 0 W/m2
10:30 13.4 °C 12.9 °C 1014.1 hPa WSW 12.2 km/h 24.5 km/h 97% 0.0 mm 0 W/m2
10:35 13.4 °C 12.8 °C 1014.1 hPa WSW 12.2 km/h 24.5 km/h 96% 0.0 mm 0 W/m2
10:40 13.3 °C 12.7 °C 1014.1 hPa SW 11.1 km/h 23.3 km/h 96% 0.0 mm 0 W/m2
10:45 13.3 °C 12.7 °C 1014.1 hPa WSW 12.2 km/h 23.3 km/h 96% 0.0 mm 0 W/m2
10:50 13.3 °C 12.7 °C 1014.1 hPa WSW 11.1 km/h 25.6 km/h 96% 0.0 mm 0 W/m2
10:55 13.3 °C 12.7 °C 1014.1 hPa West 18.3 km/h 25.6 km/h 96% 0.0 mm 0 W/m2
11:00 13.3 °C 12.7 °C 1014.1 hPa West 11.1 km/h 23.3 km/h 96% 0.0 mm 0 W/m2
11:06 13.2 °C 12.6 °C 1014.1 hPa WSW 14.8 km/h 21.9 km/h 96% 0.0 mm 0 W/m2
11:11 13.3 °C 12.7 °C 1014.1 hPa WSW 11.1 km/h 18.3 km/h 96% 0.0 mm 0 W/m2
11:16 13.2 °C 12.4 °C 1014.1 hPa West 8.7 km/h 19.5 km/h 95% 0.0 mm 0 W/m2
11:21 13.1 °C 12.3 °C 1013.8 hPa WSW 13.4 km/h 23.3 km/h 95% 0.0 mm 0 W/m2
11:26 13.0 °C 12.2 °C 1014.1 hPa WSW 11.1 km/h 23.3 km/h 95% 0.0 mm 0 W/m2
11:31 12.9 °C 12.3 °C 1013.8 hPa WSW 13.4 km/h 23.3 km/h 96% 0.0 mm 0 W/m2
11:36 12.9 °C 12.3 °C 1013.8 hPa WSW 14.8 km/h 20.9 km/h 96% 0.0 mm 0 W/m2
11:41 13.0 °C 12.4 °C 1014.1 hPa WSW 13.4 km/h 19.5 km/h 96% 0.0 mm 0 W/m2
11:46 13.0 °C 12.2 °C 1013.8 hPa WSW 7.2 km/h 20.9 km/h 95% 0.0 mm 0 W/m2
11:51 13.0 °C 12.2 °C 1013.8 hPa WSW 8.7 km/h 20.9 km/h 95% 0.0 mm 0 W/m2
11:56 13.0 °C 12.2 °C 1013.8 hPa WSW 11.1 km/h 20.9 km/h 95% 0.0 mm 0 W/m2
12:01 13.1 °C 12.3 °C 1013.8 hPa WSW 5.0 km/h 20.9 km/h 95% 0.0 mm 0 W/m2
12:06 13.1 °C 12.3 °C 1013.8 hPa WSW 7.2 km/h 18.3 km/h 95% 0.0 mm 0 W/m2
12:11 13.1 °C 12.3 °C 1013.8 hPa West 6.1 km/h 15.8 km/h 95% 0.0 mm 0 W/m2
12:16 13.1 °C 12.2 °C 1013.8 hPa WSW 7.2 km/h 15.8 km/h 94% 0.0 mm 0 W/m2
12:21 13.1 °C 12.2 °C 1013.8 hPa West 7.2 km/h 18.3 km/h 94% 0.0 mm 0 W/m2
12:26 13.0 °C 12.1 °C 1013.8 hPa West 6.1 km/h 18.3 km/h 94% 0.0 mm 0 W/m2
12:31 13.1 °C 12.2 °C 1013.8 hPa West 9.7 km/h 13.4 km/h 94% 0.0 mm 0 W/m2
12:36 13.1 °C 12.2 °C 1013.8 hPa West 5.0 km/h 13.4 km/h 94% 0.0 mm 0 W/m2
12:41 13.1 °C 12.2 °C 1013.8 hPa West 3.5 km/h 12.2 km/h 94% 0.0 mm 0 W/m2
12:46 13.1 °C 12.2 °C 1013.8 hPa West 7.2 km/h 13.4 km/h 94% 0.0 mm 0 W/m2
12:51 13.1 °C 12.2 °C 1013.4 hPa West 6.1 km/h 15.8 km/h 94% 0.0 mm 0 W/m2
12:56 13.1 °C 12.2 °C 1013.8 hPa WSW 5.0 km/h 15.8 km/h 94% 0.0 mm 0 W/m2
13:01 13.1 °C 12.2 °C 1013.8 hPa WSW 6.1 km/h 15.8 km/h 94% 0.0 mm 0 W/m2
13:06 13.0 °C 12.1 °C 1013.8 hPa West 7.2 km/h 15.8 km/h 94% 0.0 mm 0 W/m2
13:11 13.0 °C 12.1 °C 1013.8 hPa West 14.8 km/h 19.5 km/h 94% 0.0 mm 0 W/m2
13:16 13.0 °C 12.1 °C 1013.8 hPa West 5.0 km/h 19.5 km/h 94% 0.0 mm 0 W/m2
13:21 12.9 °C 11.9 °C 1013.8 hPa WSW 7.2 km/h 19.5 km/h 94% 0.0 mm 0 W/m2
13:31 12.9 °C 12.1 °C 1013.8 hPa West 5.0 km/h 20.9 km/h 95% 0.0 mm 0 W/m2
13:36 12.8 °C 12.0 °C 1013.8 hPa West 5.0 km/h 20.9 km/h 95% 0.0 mm 0 W/m2
13:41 12.8 °C 12.0 °C 1013.8 hPa West 7.2 km/h 9.7 km/h 95% 0.0 mm 0 W/m2
13:46 12.8 °C 12.2 °C 1013.8 hPa WSW 11.1 km/h 14.8 km/h 96% 0.0 mm 0 W/m2
13:51 12.8 °C 12.2 °C 1013.8 hPa WSW 7.2 km/h 18.3 km/h 96% 0.0 mm 0 W/m2
13:56 12.8 °C 12.2 °C 1013.8 hPa WSW 7.2 km/h 18.3 km/h 96% 0.0 mm 0 W/m2
14:01 12.8 °C 12.2 °C 1014.1 hPa WSW 6.1 km/h 15.8 km/h 96% 0.0 mm 0 W/m2
14:06 12.8 °C 12.2 °C 1013.8 hPa West 12.2 km/h 17.2 km/h 96% 0.0 mm 0 W/m2
14:11 12.8 °C 12.2 °C 1013.8 hPa West 7.2 km/h 17.2 km/h 96% 0.0 mm 0 W/m2
14:16 12.8 °C 12.3 °C 1013.8 hPa West 6.1 km/h 17.2 km/h 97% 0.0 mm 0 W/m2
14:21 12.9 °C 12.4 °C 1014.1 hPa WSW 12.2 km/h 21.9 km/h 97% 0.0 mm 0 W/m2
14:26 13.0 °C 12.4 °C 1014.1 hPa WSW 7.2 km/h 21.9 km/h 96% 0.0 mm 0 W/m2
14:31 13.0 °C 12.4 °C 1014.1 hPa WSW 6.1 km/h 21.9 km/h 96% 0.0 mm 0 W/m2
14:36 13.0 °C 12.4 °C 1013.8 hPa West 9.7 km/h 17.2 km/h 96% 0.0 mm 0 W/m2
14:41 13.0 °C 12.4 °C 1014.1 hPa West 8.7 km/h 17.2 km/h 96% 0.0 mm 0 W/m2
14:46 13.0 °C 12.2 °C 1014.1 hPa West 6.1 km/h 19.5 km/h 95% 0.0 mm 0 W/m2
14:51 13.0 °C 12.2 °C 1014.1 hPa West 14.8 km/h 25.6 km/h 95% 0.0 mm 0 W/m2
14:56 13.0 °C 12.2 °C 1014.1 hPa West 7.2 km/h 25.6 km/h 95% 0.0 mm 0 W/m2
15:01 13.0 °C 12.2 °C 1014.1 hPa WSW 12.2 km/h 25.6 km/h 95% 0.0 mm 0 W/m2
15:06 13.0 °C 12.2 °C 1014.1 hPa WSW 7.2 km/h 19.5 km/h 95% 0.0 mm 0 W/m2
15:11 13.1 °C 12.3 °C 1014.1 hPa WSW 7.2 km/h 20.9 km/h 95% 0.0 mm 0 W/m2
15:16 13.1 °C 12.3 °C 1014.1 hPa West 6.1 km/h 20.9 km/h 95% 0.0 mm 1 W/m2
15:21 13.1 °C 12.3 °C 1014.4 hPa West 17.2 km/h 23.3 km/h 95% 0.0 mm 2 W/m2
15:26 13.1 °C 12.3 °C 1014.4 hPa WSW 11.1 km/h 23.3 km/h 95% 0.0 mm 3 W/m2
15:31 13.2 °C 12.4 °C 1014.1 hPa WSW 8.7 km/h 23.3 km/h 95% 0.0 mm 6 W/m2
15:36 13.2 °C 12.4 °C 1014.4 hPa West 15.8 km/h 24.5 km/h 95% 0.0 mm 9 W/m2
15:41 13.3 °C 12.5 °C 1014.4 hPa WSW 8.7 km/h 24.5 km/h 95% 0.0 mm 12 W/m2
15:46 13.3 °C 12.5 °C 1014.4 hPa SW 11.1 km/h 24.5 km/h 95% 0.0 mm 13 W/m2
15:51 13.3 °C 12.5 °C 1014.4 hPa WSW 15.8 km/h 20.9 km/h 95% 0.0 mm 19 W/m2
15:56 13.3 °C 12.5 °C 1014.4 hPa WSW 8.7 km/h 21.9 km/h 95% 0.0 mm 23 W/m2
16:01 13.3 °C 12.5 °C 1014.4 hPa WSW 13.4 km/h 27.0 km/h 95% 0.0 mm 27 W/m2
16:06 13.4 °C 12.6 °C 1014.4 hPa WSW 17.2 km/h 27.0 km/h 95% 0.0 mm 30 W/m2
16:11 13.4 °C 12.4 °C 1014.4 hPa WSW 17.2 km/h 28.0 km/h 94% 0.0 mm 33 W/m2
16:16 13.5 °C 12.6 °C 1014.4 hPa WSW 12.2 km/h 35.6 km/h 94% 0.0 mm 31 W/m2
16:21 13.5 °C 12.4 °C 1014.4 hPa WSW 12.2 km/h 35.6 km/h 93% 0.0 mm 35 W/m2
16:26 13.3 °C 12.2 °C 1014.8 hPa West 13.4 km/h 25.6 km/h 93% 0.0 mm 30 W/m2
16:31 13.2 °C 12.3 °C 1014.4 hPa West 12.2 km/h 25.6 km/h 94% 0.0 mm 33 W/m2
16:36 13.2 °C 12.4 °C 1014.4 hPa West 8.7 km/h 25.6 km/h 95% 0.0 mm 23 W/m2
16:41 13.1 °C 12.3 °C 1014.8 hPa WSW 14.8 km/h 30.6 km/h 95% 0.0 mm 23 W/m2
16:46 13.1 °C 12.3 °C 1014.8 hPa West 11.1 km/h 30.6 km/h 95% 0.0 mm 28 W/m2
16:51 13.1 °C 12.5 °C 1014.8 hPa West 13.4 km/h 23.3 km/h 96% 0.0 mm 27 W/m2
16:56 13.1 °C 12.5 °C 1014.8 hPa West 15.8 km/h 28.0 km/h 96% 0.3 mm 48 W/m2
17:01 13.1 °C 12.5 °C 1014.8 hPa West 9.7 km/h 28.0 km/h 96% 0.3 mm 52 W/m2
17:06 13.1 °C 12.5 °C 1014.4 hPa West 9.7 km/h 28.0 km/h 96% 0.3 mm 66 W/m2
17:11 13.2 °C 12.6 °C 1014.8 hPa West 6.1 km/h 20.9 km/h 96% 0.3 mm 56 W/m2
17:16 13.2 °C 12.6 °C 1014.8 hPa West 6.1 km/h 20.9 km/h 96% 0.3 mm 71 W/m2
17:21 13.3 °C 12.7 °C 1014.8 hPa WNW 13.4 km/h 20.9 km/h 96% 0.3 mm 77 W/m2
17:26 13.2 °C 12.6 °C 1014.8 hPa West 9.7 km/h 23.3 km/h 96% 0.3 mm 83 W/m2
17:31 13.2 °C 12.7 °C 1014.8 hPa West 8.7 km/h 23.3 km/h 97% 0.3 mm 94 W/m2
17:36 13.3 °C 12.8 °C 1014.8 hPa WSW 6.1 km/h 20.9 km/h 97% 0.3 mm 127 W/m2
17:41 13.3 °C 12.8 °C 1014.8 hPa West 13.4 km/h 21.9 km/h 97% 0.3 mm 140 W/m2
17:46 13.4 °C 12.9 °C 1014.8 hPa WNW 7.2 km/h 21.9 km/h 97% 0.3 mm 146 W/m2
17:51 13.3 °C 12.8 °C 1014.8 hPa WSW 14.8 km/h 23.3 km/h 97% 1.0 mm 109 W/m2
17:56 13.1 °C 12.7 °C 1014.8 hPa WSW 8.7 km/h 23.3 km/h 97% 1.3 mm 82 W/m2
18:01 13.1 °C 12.7 °C 1015.1 hPa WSW 8.7 km/h 21.9 km/h 97% 1.5 mm 43 W/m2
18:06 13.0 °C 12.6 °C 1015.1 hPa West 8.7 km/h 13.4 km/h 97% 1.8 mm 43 W/m2
18:11 12.9 °C 12.4 °C 1015.1 hPa West 6.1 km/h 18.3 km/h 97% 2.0 mm 42 W/m2
18:16 12.9 °C 12.4 °C 1015.1 hPa WSW 18.3 km/h 25.6 km/h 97% 2.0 mm 34 W/m2
18:21 12.9 °C 12.4 °C 1014.8 hPa WSW 14.8 km/h 25.6 km/h 97% 2.0 mm 31 W/m2
18:26 12.9 °C 12.4 °C 1015.1 hPa WSW 11.1 km/h 25.6 km/h 97% 2.3 mm 25 W/m2
18:31 12.8 °C 12.3 °C 1014.8 hPa WSW 7.2 km/h 24.5 km/h 97% 2.3 mm 23 W/m2
18:36 12.8 °C 12.3 °C 1014.8 hPa SW 5.0 km/h 24.5 km/h 97% 2.3 mm 22 W/m2
18:41 12.8 °C 12.3 °C 1015.1 hPa WSW 21.9 km/h 24.5 km/h 97% 3.0 mm 21 W/m2
18:42 12.8 °C 12.3 °C 1014.8 hPa WSW 11.1 km/h 24.5 km/h 97% 3.0 mm 20 W/m2
18:47 12.7 °C 12.2 °C 1014.8 hPa WSW 17.2 km/h 37.8 km/h 97% 3.6 mm 18 W/m2
18:52 12.7 °C 12.2 °C 1014.8 hPa WSW 11.1 km/h 37.8 km/h 97% 3.0 mm 15 W/m2
18:57 12.6 °C 12.2 °C 1014.8 hPa WSW 19.5 km/h 29.4 km/h 97% 3.6 mm 15 W/m2
19:02 12.6 °C 12.2 °C 1014.8 hPa West 12.2 km/h 29.4 km/h 97% 3.6 mm 18 W/m2
19:07 12.6 °C 12.2 °C 1014.8 hPa West 11.1 km/h 31.7 km/h 97% 3.8 mm 22 W/m2
19:12 12.6 °C 12.2 °C 1014.8 hPa West 12.2 km/h 31.7 km/h 97% 3.8 mm 25 W/m2
19:17 12.6 °C 12.2 °C 1014.8 hPa WSW 15.8 km/h 29.4 km/h 97% 4.3 mm 24 W/m2
19:22 12.6 °C 12.2 °C 1014.8 hPa WSW 8.7 km/h 31.7 km/h 97% 4.6 mm 23 W/m2
19:27 12.6 °C 12.2 °C 1014.8 hPa West 14.8 km/h 31.7 km/h 97% 5.3 mm 29 W/m2
19:32 12.6 °C 12.2 °C 1014.4 hPa West 12.2 km/h 29.4 km/h 97% 6.6 mm 41 W/m2
19:37 12.6 °C 12.2 °C 1014.8 hPa West 15.8 km/h 29.4 km/h 97% 8.1 mm 47 W/m2
19:42 12.6 °C 12.2 °C 1014.8 hPa WSW 14.8 km/h 29.4 km/h 97% 8.4 mm 34 W/m2
19:47 12.6 °C 12.2 °C 1014.4 hPa WSW 18.3 km/h 29.4 km/h 97% 9.4 mm 24 W/m2
19:52 12.5 °C 12.1 °C 1014.8 hPa West 12.2 km/h 27.0 km/h 97% 10.4 mm 21 W/m2
19:57 12.5 °C 12.1 °C 1014.8 hPa West 11.1 km/h 25.6 km/h 97% 9.7 mm 14 W/m2
20:02 12.6 °C 12.2 °C 1014.8 hPa WSW 15.8 km/h 25.6 km/h 97% 9.7 mm 15 W/m2
20:07 12.7 °C 12.2 °C 1014.8 hPa WSW 15.8 km/h 25.6 km/h 97% 8.9 mm 21 W/m2
20:12 12.9 °C 12.4 °C 1014.4 hPa West 11.1 km/h 25.6 km/h 97% 8.9 mm 16 W/m2
20:17 12.9 °C 12.4 °C 1014.8 hPa West 11.1 km/h 28.0 km/h 97% 9.4 mm 18 W/m2
20:22 12.9 °C 12.4 °C 1014.8 hPa WSW 18.3 km/h 31.7 km/h 97% 9.4 mm 29 W/m2
20:27 12.9 °C 12.4 °C 1014.4 hPa West 20.9 km/h 31.7 km/h 97% 8.6 mm 35 W/m2
20:32 12.9 °C 12.4 °C 1014.4 hPa WSW 15.8 km/h 25.6 km/h 97% 7.1 mm 45 W/m2
20:37 13.0 °C 12.8 °C 1014.4 hPa SW 15.8 km/h 30.6 km/h 99% 6.1 mm 17 W/m2
20:42 13.1 °C 12.9 °C 1014.4 hPa WSW 9.7 km/h 30.6 km/h 99% 5.6 mm 22 W/m2
20:47 13.1 °C 12.9 °C 1014.8 hPa WSW 18.3 km/h 29.4 km/h 99% 4.8 mm 15 W/m2
20:52 13.0 °C 12.8 °C 1014.8 hPa WSW 18.3 km/h 29.4 km/h 99% 5.1 mm 21 W/m2
20:57 13.0 °C 12.8 °C 1014.8 hPa West 20.9 km/h 30.6 km/h 99% 5.6 mm 16 W/m2
21:02 12.9 °C 12.4 °C 1014.8 hPa WSW 20.9 km/h 30.6 km/h 97% 5.6 mm 20 W/m2
21:07 12.9 °C 12.4 °C 1014.8 hPa WSW 29.4 km/h 37.8 km/h 97% 6.1 mm 14 W/m2
21:12 13.0 °C 12.8 °C 1014.8 hPa West 25.6 km/h 37.8 km/h 99% 6.1 mm 22 W/m2
21:17 13.0 °C 12.8 °C 1014.8 hPa West 14.8 km/h 37.8 km/h 99% 5.6 mm 25 W/m2
21:22 13.0 °C 12.8 °C 1014.8 hPa WSW 19.5 km/h 37.8 km/h 99% 5.1 mm 15 W/m2
21:27 13.1 °C 12.9 °C 1014.8 hPa WSW 15.8 km/h 31.7 km/h 99% 5.1 mm 23 W/m2
21:32 13.1 °C 12.9 °C 1014.8 hPa WSW 19.5 km/h 31.7 km/h 99% 4.8 mm 16 W/m2
21:37 13.1 °C 12.9 °C 1014.8 hPa WSW 23.3 km/h 31.7 km/h 99% 4.6 mm 16 W/m2
21:42 13.1 °C 12.9 °C 1014.8 hPa WSW 13.4 km/h 31.7 km/h 99% 4.3 mm 16 W/m2
21:47 13.1 °C 12.9 °C 1015.1 hPa WSW 11.1 km/h 27.0 km/h 99% 3.0 mm 17 W/m2
21:52 13.1 °C 12.9 °C 1015.1 hPa WSW 13.4 km/h 27.0 km/h 99% 2.3 mm 26 W/m2
21:57 13.1 °C 12.9 °C 1015.1 hPa West 12.2 km/h 28.0 km/h 99% 1.5 mm 15 W/m2
22:02 13.1 °C 12.9 °C 1015.1 hPa WNW 14.8 km/h 28.0 km/h 99% 0.5 mm 16 W/m2
22:07 13.0 °C 12.8 °C 1015.1 hPa West 15.8 km/h 23.3 km/h 99% 0.5 mm 18 W/m2
22:12 13.0 °C 12.8 °C 1015.1 hPa WSW 17.2 km/h 23.3 km/h 99% 0.3 mm 22 W/m2
22:17 13.0 °C 12.8 °C 1015.1 hPa WSW 11.1 km/h 27.0 km/h 99% 0.3 mm 22 W/m2
22:22 13.0 °C 12.8 °C 1015.1 hPa West 15.8 km/h 27.0 km/h 99% 0.3 mm 24 W/m2
22:27 13.0 °C 12.8 °C 1015.1 hPa West 12.2 km/h 25.6 km/h 99% 0.0 mm 26 W/m2
22:32 13.0 °C 12.8 °C 1015.1 hPa WSW 15.8 km/h 20.9 km/h 99% 0.0 mm 41 W/m2
22:37 13.1 °C 12.9 °C 1015.1 hPa WSW 8.7 km/h 27.0 km/h 99% 0.0 mm 45 W/m2
22:42 13.1 °C 12.9 °C 1015.5 hPa WSW 14.8 km/h 27.0 km/h 99% 0.3 mm 36 W/m2
22:47 13.1 °C 12.9 °C 1015.5 hPa West 11.1 km/h 24.5 km/h 99% 0.3 mm 49 W/m2
22:52 13.2 °C 13.1 °C 1015.5 hPa WSW 14.8 km/h 27.0 km/h 99% 0.3 mm 55 W/m2
22:57 13.2 °C 13.1 °C 1015.5 hPa West 7.2 km/h 27.0 km/h 99% 0.3 mm 61 W/m2
23:02 13.2 °C 13.1 °C 1015.5 hPa West 17.2 km/h 27.0 km/h 99% 0.3 mm 32 W/m2
23:07 13.2 °C 13.1 °C 1015.5 hPa WSW 11.1 km/h 24.5 km/h 99% 0.5 mm 72 W/m2
23:12 13.2 °C 13.1 °C 1015.5 hPa WSW 12.2 km/h 20.9 km/h 99% 0.5 mm 93 W/m2
23:17 13.3 °C 13.2 °C 1015.5 hPa WSW 12.2 km/h 20.9 km/h 99% 0.5 mm 91 W/m2
23:22 13.3 °C 13.2 °C 1015.5 hPa WSW 11.1 km/h 20.9 km/h 99% 0.5 mm 86 W/m2
23:27 13.4 °C 13.3 °C 1015.5 hPa WSW 5.0 km/h 18.3 km/h 99% 0.5 mm 62 W/m2
23:32 13.4 °C 13.3 °C 1015.5 hPa WSW 12.2 km/h 21.9 km/h 99% 0.5 mm 70 W/m2
23:37 13.3 °C 13.2 °C 1015.5 hPa WSW 8.7 km/h 21.9 km/h 99% 0.5 mm 73 W/m2
23:42 13.3 °C 13.2 °C 1015.5 hPa WSW 12.2 km/h 21.9 km/h 99% 0.3 mm 52 W/m2
23:47 13.3 °C 13.2 °C 1015.5 hPa WSW 17.2 km/h 24.5 km/h 99% 0.3 mm 34 W/m2
23:52 13.3 °C 13.2 °C 1015.5 hPa WSW 8.7 km/h 24.5 km/h 99% 0.3 mm 17 W/m2
23:57 13.3 °C 13.2 °C 1015.5 hPa WSW 9.7 km/h 24.5 km/h 99% 0.3 mm 18 W/m2
Northern Hawkes Bay. New Zealand Historic Data
Compliments of Weather Underground - 2 mb